createdAt,value
2018-12-15T00:02:21.735Z,28.12
2018-12-15T00:04:52.394Z,27.05
2018-12-15T00:07:23.038Z,27.27
2018-12-15T00:09:51.774Z,26.87
2018-12-15T00:12:20.430Z,28.53
2018-12-15T00:14:49.158Z,26.90
2018-12-15T00:17:17.934Z,28.30
2018-12-15T00:19:46.657Z,28.47
2018-12-15T00:22:15.317Z,29.23
2018-12-15T00:24:44.038Z,28.38
2018-12-15T00:27:12.774Z,28.20
2018-12-15T00:29:41.666Z,28.50
2018-12-15T00:32:10.386Z,30.02
2018-12-15T00:34:39.119Z,30.92
2018-12-15T00:37:07.850Z,29.20
2018-12-15T00:39:36.500Z,29.60
2018-12-15T00:42:05.234Z,29.27
2018-12-15T00:44:33.946Z,29.53
2018-12-15T00:47:02.722Z,30.12
2018-12-15T00:49:31.378Z,30.72
2018-12-15T00:52:00.142Z,31.65
2018-12-15T00:54:28.863Z,29.50
2018-12-15T00:56:57.527Z,30.75
2018-12-15T00:59:26.192Z,30.25
2018-12-15T01:01:54.904Z,30.15
2018-12-15T01:04:23.614Z,29.80
2018-12-15T01:06:52.366Z,29.63
2018-12-15T01:09:21.102Z,30.25
2018-12-15T01:11:49.832Z,30.65
2018-12-15T01:14:18.487Z,31.25
2018-12-15T01:16:47.183Z,30.65
2018-12-15T01:19:15.894Z,30.93
2018-12-15T01:21:44.570Z,29.98
2018-12-15T01:24:13.289Z,30.97
2018-12-15T01:26:42.030Z,31.10
2018-12-15T01:29:11.783Z,32.13
2018-12-15T01:31:40.498Z,33.55
2018-12-15T01:34:09.226Z,33.00
2018-12-15T01:36:37.888Z,32.40
2018-12-15T01:39:08.354Z,30.90
2018-12-15T01:41:37.173Z,31.85
2018-12-15T01:44:05.884Z,31.48
2018-12-15T01:46:34.583Z,32.55
2018-12-15T01:49:03.335Z,32.15
2018-12-15T01:51:32.106Z,32.00
2018-12-15T01:54:00.806Z,31.10
2018-12-15T01:56:29.464Z,32.40
2018-12-15T01:58:58.166Z,31.27
2018-12-15T02:01:26.881Z,30.48
2018-12-15T02:03:55.573Z,31.02
2018-12-15T02:06:24.291Z,31.60
2018-12-15T02:08:53.043Z,31.45
2018-12-15T02:11:23.697Z,32.45
2018-12-15T02:13:53.515Z,31.45
2018-12-15T02:16:22.226Z,31.42
2018-12-15T02:18:50.943Z,32.33
2018-12-15T02:21:19.639Z,32.67
2018-12-15T02:23:48.335Z,32.83
2018-12-15T02:26:17.042Z,31.60
2018-12-15T02:28:45.759Z,32.20
2018-12-15T02:31:14.450Z,33.58
2018-12-15T02:33:44.171Z,32.10
2018-12-15T02:36:12.875Z,32.10
2018-12-15T02:38:41.573Z,31.90
2018-12-15T02:41:10.296Z,33.42
2018-12-15T02:43:39.022Z,32.20
2018-12-15T02:46:07.756Z,32.93
2018-12-15T02:48:36.478Z,32.88
2018-12-15T02:51:05.194Z,34.25
2018-12-15T02:53:33.923Z,32.83
2018-12-15T02:56:02.590Z,33.18
2018-12-15T02:58:31.304Z,33.80
2018-12-15T03:01:00.011Z,33.80
2018-12-15T03:03:28.742Z,33.25
2018-12-15T03:05:57.450Z,34.00
2018-12-15T03:08:26.174Z,33.85
2018-12-15T03:10:54.827Z,32.93
2018-12-15T03:13:23.538Z,36.20
2018-12-15T03:15:52.260Z,34.90
2018-12-15T03:18:21.066Z,35.23
2018-12-15T03:21:01.198Z,35.03
2018-12-15T03:23:29.859Z,35.88
2018-12-15T03:25:58.834Z,37.83
2018-12-15T03:28:27.508Z,36.70
2018-12-15T03:30:56.226Z,36.75
2018-12-15T03:33:25.008Z,35.78
2018-12-15T03:35:53.734Z,35.73
2018-12-15T03:38:22.450Z,37.25
2018-12-15T03:40:51.166Z,37.00
2018-12-15T03:43:19.916Z,38.60
2018-12-15T03:45:48.612Z,38.65
2018-12-15T03:48:17.311Z,37.55
2018-12-15T03:50:46.019Z,38.25
2018-12-15T03:53:14.745Z,39.15
2018-12-15T03:55:43.444Z,38.28
2018-12-15T03:58:12.213Z,39.40
2018-12-15T04:00:40.925Z,37.47
2018-12-15T04:03:09.587Z,38.17
2018-12-15T04:05:38.302Z,38.13
2018-12-15T04:08:06.989Z,37.85
2018-12-15T04:10:35.997Z,37.65
2018-12-15T04:13:04.800Z,37.70
2018-12-15T04:15:33.559Z,36.77
2018-12-15T04:18:03.858Z,37.70
2018-12-15T04:20:32.809Z,38.15
2018-12-15T04:23:01.547Z,37.90
2018-12-15T04:25:30.326Z,38.08
2018-12-15T04:27:59.031Z,38.02
2018-12-15T04:30:27.879Z,37.05
2018-12-15T04:32:56.558Z,38.87
2018-12-15T04:35:25.386Z,39.50
2018-12-15T04:37:54.111Z,40.20
2018-12-15T04:40:23.271Z,39.13
2018-12-15T04:42:51.990Z,40.10
2018-12-15T04:45:20.807Z,39.58
2018-12-15T04:47:49.647Z,39.20
2018-12-15T04:50:18.347Z,40.43
2018-12-15T04:52:47.043Z,39.55
2018-12-15T04:55:15.741Z,40.98
2018-12-15T04:57:44.517Z,38.77
2018-12-15T05:00:13.279Z,41.18
2018-12-15T05:02:44.058Z,40.15
2018-12-15T05:05:12.786Z,39.73
2018-12-15T05:07:41.479Z,38.55
2018-12-15T05:10:11.271Z,39.35
2018-12-15T05:12:39.960Z,39.57
2018-12-15T05:15:08.752Z,40.33
2018-12-15T05:17:37.460Z,41.37
2018-12-15T05:20:07.429Z,40.90
2018-12-15T05:22:36.306Z,41.20
2018-12-15T05:25:06.115Z,41.90
2018-12-15T05:27:34.843Z,41.45
2018-12-15T05:30:03.734Z,42.33
2018-12-15T05:32:32.465Z,41.73
2018-12-15T05:35:01.255Z,40.75
2018-12-15T05:37:30.099Z,41.33
2018-12-15T05:39:58.823Z,41.80
2018-12-15T05:42:27.571Z,42.08
2018-12-15T05:44:56.335Z,41.57
2018-12-15T05:47:25.083Z,41.50
2018-12-15T05:49:53.762Z,42.40
2018-12-15T05:52:22.458Z,42.98
2018-12-15T05:54:51.155Z,43.23
2018-12-15T05:57:19.914Z,41.85
2018-12-15T05:59:48.618Z,43.00
2018-12-15T06:02:18.119Z,42.05
2018-12-15T06:04:46.866Z,44.13
2018-12-15T06:07:15.586Z,44.77
2018-12-15T06:09:44.327Z,43.55
2018-12-15T06:12:13.091Z,44.70
2018-12-15T06:14:41.844Z,42.27
2018-12-15T06:17:10.675Z,43.95
2018-12-15T06:19:39.500Z,43.43
2018-12-15T06:22:08.263Z,42.75
2018-12-15T06:24:37.397Z,43.00
2018-12-15T06:27:06.119Z,43.98
2018-12-15T06:29:34.867Z,41.60
2018-12-15T06:32:03.699Z,42.40
2018-12-15T06:34:32.463Z,42.65
2018-12-15T06:37:01.166Z,42.55
2018-12-15T06:39:29.991Z,42.53
2018-12-15T06:41:58.756Z,42.53
2018-12-15T06:44:27.591Z,41.98
2018-12-15T06:46:56.287Z,42.57
2018-12-15T06:49:25.893Z,43.20
2018-12-15T06:51:54.591Z,42.90
2018-12-15T06:54:23.297Z,42.73
2018-12-15T06:56:51.990Z,43.20
2018-12-15T06:59:20.746Z,43.45
2018-12-15T07:01:49.523Z,42.80
2018-12-15T07:04:18.279Z,43.00
2018-12-15T07:06:47.039Z,43.63
2018-12-15T07:09:15.782Z,41.70
2018-12-15T07:11:44.526Z,44.10
2018-12-15T07:14:13.264Z,43.40
2018-12-15T07:16:41.991Z,44.90
2018-12-15T07:19:10.794Z,42.60
2018-12-15T07:21:39.531Z,42.27
2018-12-15T07:24:08.790Z,43.55
2018-12-15T07:26:37.596Z,45.17
2018-12-15T07:29:06.423Z,44.23
2018-12-15T07:31:35.206Z,44.50
2018-12-15T07:34:03.973Z,44.70
2018-12-15T07:36:32.831Z,43.52
2018-12-15T07:39:01.563Z,44.87
2018-12-15T07:41:31.274Z,43.70
2018-12-15T07:44:00.007Z,45.38
2018-12-15T07:46:28.678Z,46.23
2018-12-15T07:48:57.385Z,45.63
2018-12-15T07:51:26.119Z,46.17
2018-12-15T07:53:54.892Z,46.77
2018-12-15T07:56:26.797Z,46.83
2018-12-15T07:58:56.074Z,47.07
2018-12-15T08:01:24.778Z,46.30
2018-12-15T08:03:53.559Z,45.57
2018-12-15T08:06:22.283Z,45.03
2018-12-15T08:08:51.020Z,46.23
2018-12-15T08:11:25.200Z,46.50
2018-12-15T08:13:58.112Z,45.83
2018-12-15T08:16:26.907Z,47.37
2018-12-15T08:18:58.194Z,46.15
2018-12-15T08:21:26.954Z,45.87
2018-12-15T08:23:55.622Z,45.37
2018-12-15T08:26:25.451Z,45.13
2018-12-15T08:28:54.184Z,47.30
2018-12-15T08:31:22.910Z,47.80
2018-12-15T08:33:51.690Z,45.93
2018-12-15T08:36:20.354Z,44.23
2018-12-15T08:38:49.087Z,43.77
2018-12-15T08:41:17.972Z,43.23
2018-12-15T08:43:47.529Z,42.62
2018-12-15T08:46:17.578Z,44.20
2018-12-15T08:48:46.302Z,46.27
2018-12-15T08:51:15.254Z,46.95
2018-12-15T08:53:44.042Z,45.85
2018-12-15T08:56:12.770Z,45.20
2018-12-15T08:58:41.550Z,46.85
2018-12-15T09:01:10.299Z,46.33
2018-12-15T09:03:39.019Z,45.67
2018-12-15T09:06:07.767Z,47.62
2018-12-15T09:08:36.460Z,46.08
2018-12-15T09:11:05.193Z,48.83
2018-12-15T09:13:33.946Z,48.35
2018-12-15T09:16:02.675Z,46.63
2018-12-15T09:18:31.717Z,45.13
2018-12-15T09:21:00.434Z,43.80
2018-12-15T09:23:29.131Z,41.10
2018-12-15T09:25:57.878Z,42.37
2018-12-15T09:28:27.242Z,41.90
2018-12-15T09:30:56.032Z,41.23
2018-12-15T09:33:24.730Z,39.00
2018-12-15T09:35:53.471Z,40.70
2018-12-15T09:38:22.231Z,41.20
2018-12-15T09:40:50.972Z,37.55
2018-12-15T09:43:19.758Z,36.35
2018-12-15T09:45:48.415Z,38.47
2018-12-15T09:48:17.146Z,36.58
2018-12-15T09:50:46.455Z,32.63
2018-12-15T09:53:15.235Z,33.80
2018-12-15T09:55:43.998Z,34.07
2018-12-15T09:58:12.655Z,34.48
2018-12-15T10:00:41.359Z,32.93
2018-12-15T10:03:10.094Z,33.60
2018-12-15T10:05:38.814Z,34.70
2018-12-15T10:08:07.487Z,35.60
2018-12-15T10:10:36.211Z,33.00
2018-12-15T10:13:04.969Z,32.58
2018-12-15T10:15:33.700Z,34.13
2018-12-15T10:18:02.488Z,33.27
2018-12-15T10:20:31.244Z,31.30
2018-12-15T10:22:59.945Z,33.38
2018-12-15T10:25:28.646Z,32.37
2018-12-15T10:27:57.389Z,32.90
2018-12-15T10:30:31.582Z,31.13
2018-12-15T10:33:00.314Z,30.82
2018-12-15T10:35:29.062Z,30.70
2018-12-15T10:37:58.027Z,30.90
2018-12-15T10:40:26.806Z,29.92
2018-12-15T10:42:55.490Z,30.50
2018-12-15T10:45:24.245Z,30.20
2018-12-15T10:47:52.971Z,29.87
2018-12-15T10:50:21.656Z,29.25
2018-12-15T10:52:50.315Z,29.23
2018-12-15T10:55:19.034Z,30.97
2018-12-15T10:57:47.915Z,29.90
2018-12-15T11:00:23.029Z,32.50
2018-12-15T11:02:51.758Z,28.98
2018-12-15T11:05:20.511Z,27.32
2018-12-15T11:07:49.306Z,40.38
2018-12-15T11:10:18.206Z,28.32
2018-12-15T11:12:46.891Z,29.85
2018-12-15T11:15:15.626Z,27.80
2018-12-15T11:17:44.364Z,31.07
2018-12-15T11:20:13.166Z,34.20
2018-12-15T11:22:41.962Z,30.25
2018-12-15T11:25:10.723Z,31.00
2018-12-15T11:27:39.445Z,28.83
2018-12-15T11:30:08.198Z,29.93
2018-12-15T11:32:37.091Z,32.67
2018-12-15T11:35:06.114Z,28.80
2018-12-15T11:37:34.954Z,28.65
2018-12-15T11:40:03.831Z,29.20
2018-12-15T11:42:32.558Z,28.33
2018-12-15T11:45:01.267Z,27.37
2018-12-15T11:47:30.010Z,28.30
2018-12-15T11:49:58.747Z,26.37
2018-12-15T11:52:27.494Z,28.92
2018-12-15T11:54:56.202Z,30.30
2018-12-15T11:57:25.026Z,28.00
2018-12-15T11:59:53.791Z,28.70
2018-12-15T12:02:22.526Z,30.68
2018-12-15T12:04:51.279Z,28.70
2018-12-15T12:07:20.072Z,30.65
2018-12-15T12:09:48.799Z,29.63
2018-12-15T12:12:17.515Z,29.87
2018-12-15T12:14:46.238Z,30.05
2018-12-15T12:17:14.951Z,29.15
2018-12-15T12:19:50.028Z,29.20
2018-12-15T12:22:14.403Z,31.37
2018-12-15T12:24:43.111Z,27.77
2018-12-15T12:27:13.809Z,30.55
2018-12-15T12:29:43.577Z,29.90
2018-12-15T12:32:12.383Z,28.58
2018-12-15T12:34:41.074Z,28.98
2018-12-15T12:37:09.886Z,28.87
2018-12-15T12:39:38.628Z,26.10
2018-12-15T12:42:07.346Z,27.80
2018-12-15T12:44:36.738Z,30.00
2018-12-15T12:47:05.546Z,31.77
2018-12-15T12:49:34.318Z,30.97
2018-12-15T12:52:03.094Z,29.20
2018-12-15T12:54:31.850Z,30.97
2018-12-15T12:57:00.570Z,27.93
2018-12-15T12:59:31.323Z,27.64
2018-12-15T13:02:00.086Z,28.00
2018-12-15T13:04:28.742Z,23.97
2018-12-15T13:06:57.462Z,25.30
2018-12-15T13:09:26.196Z,30.10
2018-12-15T13:11:54.931Z,27.10
2018-12-15T13:14:23.714Z,27.22
2018-12-15T13:16:52.502Z,27.27
2018-12-15T13:19:21.203Z,26.40
2018-12-15T13:21:50.792Z,27.00
2018-12-15T13:24:19.522Z,25.70
2018-12-15T13:26:48.246Z,25.60
2018-12-15T13:29:16.956Z,26.70
2018-12-15T13:31:45.658Z,26.17
2018-12-15T13:34:14.410Z,26.20
2018-12-15T13:36:43.135Z,27.57
2018-12-15T13:39:11.946Z,26.75
2018-12-15T13:41:40.687Z,30.50
2018-12-15T13:44:10.046Z,29.70
2018-12-15T13:46:38.770Z,25.97
2018-12-15T13:49:07.500Z,24.02
2018-12-15T13:51:36.214Z,25.50
2018-12-15T13:54:04.931Z,24.60
2018-12-15T13:56:33.659Z,25.50
2018-12-15T13:59:02.390Z,26.60
2018-12-15T14:01:31.162Z,32.20
2018-12-15T14:03:59.882Z,34.23
2018-12-15T14:06:29.426Z,24.40
2018-12-15T14:08:58.154Z,25.23
2018-12-15T14:11:26.907Z,24.03
2018-12-15T14:13:55.652Z,25.00
2018-12-15T14:16:24.365Z,23.10
2018-12-15T14:18:53.102Z,24.40
2018-12-15T14:21:21.810Z,23.63
2018-12-15T14:23:50.527Z,23.07
2018-12-15T14:26:19.266Z,22.27
2018-12-15T14:28:49.006Z,23.12
2018-12-15T14:31:17.721Z,24.07
2018-12-15T14:33:46.411Z,23.23
2018-12-15T14:36:15.154Z,24.10
2018-12-15T14:38:43.905Z,24.33
2018-12-15T14:41:12.652Z,25.13
2018-12-15T14:43:41.416Z,24.07
2018-12-15T14:46:10.142Z,23.30
2018-12-15T14:48:38.839Z,30.37
2018-12-15T14:51:08.510Z,37.13
2018-12-15T14:53:37.255Z,52.60
2018-12-15T14:56:05.990Z,41.20
2018-12-15T14:58:34.743Z,33.17
2018-12-15T15:01:04.526Z,23.63
2018-12-15T15:03:33.219Z,23.27
2018-12-15T15:06:01.871Z,23.87
2018-12-15T15:08:30.691Z,22.47
2018-12-15T15:10:59.596Z,21.33
2018-12-15T15:13:34.328Z,23.50
2018-12-15T15:15:59.091Z,22.77
2018-12-15T15:18:27.805Z,22.48
2018-12-15T15:20:56.642Z,19.55
2018-12-15T15:23:25.311Z,23.42
2018-12-15T15:25:54.051Z,22.70
2018-12-15T15:28:22.797Z,22.25
2018-12-15T15:30:51.539Z,24.30
2018-12-15T15:33:20.200Z,22.06
2018-12-15T15:35:48.930Z,20.48
2018-12-15T15:38:17.657Z,20.68
2018-12-15T15:40:46.387Z,20.27
2018-12-15T15:43:15.070Z,20.50
2018-12-15T15:45:43.793Z,19.45
2018-12-15T15:48:12.482Z,17.82
2018-12-15T15:50:41.235Z,19.30
2018-12-15T15:53:10.059Z,17.65
2018-12-15T15:55:38.796Z,17.70
2018-12-15T15:58:07.541Z,20.20
2018-12-15T16:00:36.267Z,19.35
2018-12-15T16:03:05.042Z,22.62
2018-12-15T16:05:33.771Z,18.73
2018-12-15T16:08:02.424Z,20.33
2018-12-15T16:10:31.155Z,20.90
2018-12-15T16:12:59.883Z,18.00
2018-12-15T16:15:28.619Z,17.90
2018-12-15T16:17:57.442Z,21.63
2018-12-15T16:20:26.117Z,19.60
2018-12-15T16:22:54.843Z,18.67
2018-12-15T16:25:23.590Z,21.17
2018-12-15T16:27:52.302Z,19.90
2018-12-15T16:30:21.087Z,20.05
2018-12-15T16:32:49.819Z,20.67
2018-12-15T16:35:19.800Z,22.40
2018-12-15T16:37:48.732Z,20.60
2018-12-15T16:40:17.474Z,21.50
2018-12-15T16:42:46.214Z,21.23
2018-12-15T16:45:15.011Z,22.70
2018-12-15T16:47:43.763Z,22.32
2018-12-15T16:50:13.773Z,28.45
2018-12-15T16:52:42.787Z,23.30
2018-12-15T16:55:11.491Z,24.20
2018-12-15T16:57:41.262Z,34.23
2018-12-15T17:00:12.815Z,38.25
2018-12-15T17:02:41.513Z,48.80
2018-12-15T17:05:10.222Z,45.60
2018-12-15T17:07:38.962Z,37.97
2018-12-15T17:10:08.549Z,26.93
2018-12-15T17:12:37.282Z,25.52
2018-12-15T17:15:07.746Z,24.07
2018-12-15T17:17:37.538Z,25.50
2018-12-15T17:20:07.667Z,24.60
2018-12-15T17:22:37.403Z,25.40
2018-12-15T17:25:07.086Z,24.00
2018-12-15T17:27:35.822Z,24.63
2018-12-15T17:30:06.350Z,25.57
2018-12-15T17:32:36.194Z,24.10
2018-12-15T17:35:05.562Z,24.10
2018-12-15T17:37:35.384Z,23.57
2018-12-15T17:40:06.687Z,25.57
2018-12-15T17:42:35.463Z,24.80
2018-12-15T17:45:04.351Z,26.50
2018-12-15T17:47:33.098Z,27.07
2018-12-15T17:50:01.794Z,25.93
2018-12-15T17:52:30.514Z,26.10
2018-12-15T17:54:59.246Z,25.35
2018-12-15T17:57:27.979Z,25.80
2018-12-15T17:59:56.738Z,23.60
2018-12-15T18:02:26.119Z,22.90
2018-12-15T18:04:54.847Z,23.00
2018-12-15T18:07:23.582Z,22.37
2018-12-15T18:09:52.334Z,21.30
2018-12-15T18:12:21.078Z,23.25
2018-12-15T18:14:49.840Z,24.03
2018-12-15T18:17:18.543Z,21.40
2018-12-15T18:19:47.223Z,21.65
2018-12-15T18:22:15.955Z,23.03
2018-12-15T18:24:45.407Z,21.85
2018-12-15T18:27:14.090Z,21.20
2018-12-15T18:29:42.787Z,21.83
2018-12-15T18:32:11.602Z,22.10
2018-12-15T18:34:40.341Z,21.70
2018-12-15T18:37:09.089Z,22.63
2018-12-15T18:39:37.819Z,21.15
2018-12-15T18:42:10.827Z,21.73
2018-12-15T18:44:37.235Z,19.73
2018-12-15T18:47:05.934Z,20.60
2018-12-15T18:49:34.679Z,22.47
2018-12-15T18:52:03.467Z,21.20
2018-12-15T18:54:32.286Z,20.37
2018-12-15T18:57:01.091Z,19.60
2018-12-15T18:59:31.141Z,20.55
2018-12-15T19:01:59.895Z,17.92
2018-12-15T19:04:28.683Z,18.52
2018-12-15T19:06:57.351Z,18.50
2018-12-15T19:09:26.115Z,18.45
2018-12-15T19:11:55.927Z,18.48
2018-12-15T19:14:24.647Z,16.47
2018-12-15T19:16:53.419Z,17.43
2018-12-15T19:19:22.162Z,16.55
2018-12-15T19:21:50.843Z,16.53
2018-12-15T19:24:19.607Z,17.90
2018-12-15T19:26:48.326Z,17.40
2018-12-15T19:29:17.131Z,18.23
2018-12-15T19:31:45.883Z,17.40
2018-12-15T19:34:17.687Z,16.10
2018-12-15T19:36:45.918Z,17.40
2018-12-15T19:39:14.714Z,17.23
2018-12-15T19:41:43.456Z,18.07
2018-12-15T19:44:12.206Z,18.70
2018-12-15T19:46:40.934Z,18.23
2018-12-15T19:49:09.671Z,17.90
2018-12-15T19:51:38.394Z,17.20
2018-12-15T19:54:07.139Z,19.20
2018-12-15T19:56:36.874Z,17.90
2018-12-15T19:59:05.586Z,25.40
2018-12-15T20:01:34.311Z,20.83
2018-12-15T20:04:03.055Z,27.27
2018-12-15T20:06:32.547Z,22.23
2018-12-15T20:09:01.226Z,25.23
2018-12-15T20:11:29.994Z,22.63
2018-12-15T20:13:58.646Z,23.37
2018-12-15T20:16:27.439Z,24.45
2018-12-15T20:18:56.154Z,21.07
2018-12-15T20:21:24.882Z,19.10
2018-12-15T20:23:53.735Z,17.17
2018-12-15T20:26:22.487Z,18.70
2018-12-15T20:28:51.186Z,16.87
2018-12-15T20:31:19.912Z,16.77
2018-12-15T20:33:48.586Z,16.73
2018-12-15T20:36:17.342Z,19.00
2018-12-15T20:38:46.054Z,18.30
2018-12-15T20:41:14.755Z,17.65
2018-12-15T20:43:43.514Z,16.80
2018-12-15T20:46:12.259Z,16.80
2018-12-15T20:48:40.995Z,16.82
2018-12-15T20:51:09.719Z,14.90
2018-12-15T20:53:38.472Z,16.10
2018-12-15T20:56:07.208Z,16.10
2018-12-15T20:58:35.969Z,17.80
2018-12-15T21:01:04.806Z,18.82
2018-12-15T21:03:33.535Z,16.55
2018-12-15T21:06:02.300Z,16.00
2018-12-15T21:08:31.039Z,16.73
2018-12-15T21:10:59.822Z,16.60
2018-12-15T21:13:28.528Z,17.20
2018-12-15T21:15:58.413Z,16.77
2018-12-15T21:18:27.205Z,17.10
2018-12-15T21:20:55.931Z,16.52
2018-12-15T21:23:24.707Z,18.57
2018-12-15T21:25:53.442Z,15.83
2018-12-15T21:28:22.162Z,16.95
2018-12-15T21:30:50.834Z,16.05
2018-12-15T21:33:19.590Z,16.90
2018-12-15T21:35:48.322Z,17.00
2018-12-15T21:38:17.066Z,17.32
2018-12-15T21:40:45.845Z,15.50
2018-12-15T21:43:14.578Z,16.70
2018-12-15T21:45:43.320Z,16.30
2018-12-15T21:48:12.112Z,16.17
2018-12-15T21:50:40.899Z,16.50
2018-12-15T21:53:09.556Z,16.20
2018-12-15T21:55:38.307Z,16.20
2018-12-15T21:58:07.058Z,15.75
2018-12-15T22:00:35.766Z,16.32
2018-12-15T22:03:04.582Z,17.27
2018-12-15T22:05:33.275Z,16.32
2018-12-15T22:08:01.971Z,15.50
2018-12-15T22:10:31.100Z,14.93
2018-12-15T22:12:59.894Z,15.80
2018-12-15T22:15:28.654Z,16.60
2018-12-15T22:17:57.382Z,15.28
2018-12-15T22:20:26.117Z,17.25
2018-12-15T22:22:54.800Z,16.50
2018-12-15T22:25:23.530Z,15.73
2018-12-15T22:27:52.211Z,15.53
2018-12-15T22:30:20.915Z,15.50
2018-12-15T22:32:50.318Z,15.32
2018-12-15T22:35:19.029Z,16.80
2018-12-15T22:37:47.839Z,15.98
2018-12-15T22:40:17.632Z,16.43
2018-12-15T22:42:46.345Z,15.77
2018-12-15T22:45:15.052Z,15.83
2018-12-15T22:47:43.802Z,16.30
2018-12-15T22:50:12.564Z,16.20
2018-12-15T22:52:41.362Z,17.75
2018-12-15T22:55:10.585Z,16.70
2018-12-15T22:57:39.374Z,15.35
2018-12-15T23:00:10.511Z,15.50
2018-12-15T23:02:41.135Z,17.17
2018-12-15T23:05:10.041Z,16.70
2018-12-15T23:07:38.765Z,16.95
2018-12-15T23:10:08.214Z,17.92
2018-12-15T23:12:36.983Z,16.27
2018-12-15T23:15:06.764Z,16.37
2018-12-15T23:17:35.479Z,16.40
2018-12-15T23:20:05.514Z,18.15
2018-12-15T23:22:34.238Z,17.50
2018-12-15T23:25:03.010Z,18.12
2018-12-15T23:27:31.678Z,17.30
2018-12-15T23:30:00.407Z,18.20
2018-12-15T23:32:29.076Z,17.00
2018-12-15T23:34:57.819Z,18.63
2018-12-15T23:37:26.530Z,18.20
2018-12-15T23:39:55.242Z,18.95
2018-12-15T23:42:23.986Z,19.12
2018-12-15T23:44:52.803Z,18.82
2018-12-15T23:47:21.476Z,17.45
2018-12-15T23:49:50.186Z,18.25
2018-12-15T23:52:23.287Z,18.77
2018-12-15T23:54:49.643Z,18.40
2018-12-15T23:57:18.414Z,19.15
2018-12-15T23:59:47.070Z,19.35
